Pagina principale
METAR-TAF:

METAR-TAF

Aeroporti :

Aeroporto di Bogotà-El Dorado

Bogotá, Colombia

latitudine: 04-43N, longitudine: 074-09W, altezza: 2547 m

Osservazione

Il bollettino è stato emesso 57 minuti fa, alle 22:00 UTC
Vento 9 kt da sud-est
Temperature 17°C
Umidità 42%
Pressione 1026 hPa
Visibilità 10 km o più
Nubi sparse ad un'altezza di 2000 ft
Nuvoloso ad un'altezza di 20000 ft

METAR: SKBO 152200Z 13009KT 9999 SCT020 BKN200 17/04 A3030

Ora: 17:57 (22:57 UTC)

Previsione

Il bollettino è stato emesso 5 ore e 57 minuti fa, alle 17:00 UTC
Previsione valida dal 15 alle 18 UTC al 16 alle 18 UTC
Vento 12 kt da sud
Visibilità 10 km o più
Nubi sparse ad un'altezza di 2300 ft
Nubi sparse ad un'altezza di 10000 ft
Evoluzione graduale
dal 16 alle 02 UTC al 16 alle 04 UTC
Vento 2 kt da direzioni variabili

TAF: SKBO 151700Z 1518/1618 18012KT 9999 SCT023 SCT100 BECMG 1602/1604 VRB02KT TX20/1518Z TN08/1611Z

Osservazioni e previsioni meteorologiche di più di 4000 aeroporti (messaggi METAR e TAF).

Le stazioni disponibili sono rappresentate dai dischi gialli e rossi sulla carta.

Puntare il mouse per vedere il nome della stazione.

Clicca sopra per visualizzare le osservazioni e previsioni meteorologiche.

Per cambiare la mappa : fare clic sui pulsanti verdi con una croce nera per ingrandire, il pulsante verde con un trattino per diminuire, o sulla freccia verde per le mappe adiacenti.


METAR-TAF: